Time,TemperatureF,DewpointF,PressureIn,WindDirection,WindDirectionDegrees,WindSpeedMPH,WindSpeedGustMPH,Humidity,HourlyPrecipIn,Conditions,Clouds,dailyrainin,SoftwareType,DateUTC
2016-07-29 00:02:00,72.3,66.2,29.92,WSW,245,0.0,0.0,81,0.00,,---,0.00,VWS V15.00,2016-07-29 05:02:00,
2016-07-29 00:07:00,72.3,66.5,29.92,WSW,245,0.0,0.0,82,0.00,,---,0.00,VWS V15.00,2016-07-29 05:07:00,
2016-07-29 00:12:00,72.3,66.5,29.92,WSW,245,0.0,0.0,82,0.00,,---,0.00,VWS V15.00,2016-07-29 05:12:00,
2016-07-29 00:17:00,72.3,66.5,29.92,WSW,245,0.0,0.0,82,0.00,,---,0.00,VWS V15.00,2016-07-29 05:17:00,
2016-07-29 00:22:00,72.3,66.5,29.92,WSW,245,0.0,0.0,82,0.00,,---,0.00,VWS V15.00,2016-07-29 05:22:00,
2016-07-29 00:27:00,72.5,67.1,29.92,WSW,245,0.0,0.0,83,0.00,,---,0.00,VWS V15.00,2016-07-29 05:27:00,
2016-07-29 00:32:00,72.5,67.1,29.92,WSW,245,0.0,0.0,83,0.00,,---,0.00,VWS V15.00,2016-07-29 05:32:00,
2016-07-29 00:37:00,72.5,67.1,29.92,WSW,245,0.0,0.0,83,0.00,,---,0.00,VWS V15.00,2016-07-29 05:37:00,
2016-07-29 00:42:00,72.5,67.1,29.92,WSW,245,0.0,0.0,83,0.00,,---,0.00,VWS V15.00,2016-07-29 05:42:00,
2016-07-29 00:47:00,72.3,66.9,29.92,WSW,245,0.0,0.0,83,0.00,,---,0.00,VWS V15.00,2016-07-29 05:47:00,
2016-07-29 00:52:00,72.5,67.4,29.92,WSW,245,0.0,0.0,84,0.00,,---,0.00,VWS V15.00,2016-07-29 05:52:00,
2016-07-29 00:57:00,72.5,67.4,29.92,WSW,245,0.0,0.0,84,0.00,,---,0.00,VWS V15.00,2016-07-29 05:57:00,
2016-07-29 01:02:00,72.5,67.7,29.92,WSW,245,0.0,0.0,85,0.00,,---,0.00,VWS V15.00,2016-07-29 06:02:00,
2016-07-29 01:07:00,72.5,67.7,29.92,West,272,3.6,3.6,85,0.00,,---,0.00,VWS V15.00,2016-07-29 06:07:00,
2016-07-29 01:12:00,72.5,68.1,29.92,West,270,0.0,0.0,86,0.00,,---,0.00,VWS V15.00,2016-07-29 06:12:00,
2016-07-29 01:17:00,72.5,68.1,29.92,West,270,0.0,0.0,86,0.00,,---,0.00,VWS V15.00,2016-07-29 06:17:00,
2016-07-29 01:22:00,72.5,68.1,29.92,West,270,0.0,0.0,86,0.00,,---,0.00,VWS V15.00,2016-07-29 06:22:00,
2016-07-29 01:27:00,72.3,68.2,29.89,West,270,0.0,0.0,87,0.00,,---,0.00,VWS V15.00,2016-07-29 06:27:00,
2016-07-29 01:32:00,72.3,68.2,29.89,West,270,0.0,0.0,87,0.00,,---,0.00,VWS V15.00,2016-07-29 06:32:00,
2016-07-29 01:37:00,72.1,68.1,29.89,West,270,0.0,0.0,87,0.00,,---,0.00,VWS V15.00,2016-07-29 06:37:00,
2016-07-29 01:42:00,72.1,68.1,29.89,WSW,249,0.0,0.0,87,0.00,,---,0.00,VWS V15.00,2016-07-29 06:42:00,
2016-07-29 01:47:00,72.0,68.2,29.89,West,264,0.0,0.0,88,0.00,,---,0.00,VWS V15.00,2016-07-29 06:47:00,
2016-07-29 01:52:00,72.0,68.2,29.89,West,264,0.0,0.0,88,0.00,,---,0.00,VWS V15.00,2016-07-29 06:52:00,
2016-07-29 01:58:00,72.0,68.2,29.89,West,264,0.0,0.0,88,0.00,,---,0.00,VWS V15.00,2016-07-29 06:58:00,
2016-07-29 02:03:00,72.0,68.6,29.89,West,264,0.0,0.0,89,0.00,,---,0.00,VWS V15.00,2016-07-29 07:03:00,
2016-07-29 02:06:00,72.0,68.6,29.89,West,264,0.0,0.0,89,0.00,,---,0.00,VWS V15.00,2016-07-29 07:06:00,
2016-07-29 02:11:00,72.0,68.6,29.89,West,264,0.0,0.0,89,0.00,,---,0.00,VWS V15.00,2016-07-29 07:11:00,
2016-07-29 02:16:00,71.8,68.7,29.89,West,264,0.0,0.0,90,0.00,,---,0.00,VWS V15.00,2016-07-29 07:16:00,
2016-07-29 02:21:00,71.8,68.7,29.89,West,264,0.0,0.0,90,0.00,,---,0.00,VWS V15.00,2016-07-29 07:21:00,
2016-07-29 02:26:00,71.8,69.0,29.89,West,264,0.0,0.0,91,0.00,,---,0.00,VWS V15.00,2016-07-29 07:26:00,
2016-07-29 02:31:00,71.6,68.8,29.89,West,264,0.0,0.0,91,0.00,,---,0.00,VWS V15.00,2016-07-29 07:31:00,
2016-07-29 02:36:00,71.6,69.2,29.89,West,264,0.0,0.0,92,0.00,,---,0.00,VWS V15.00,2016-07-29 07:36:00,
2016-07-29 02:41:00,71.6,69.5,29.89,West,264,0.0,0.0,93,0.00,,---,0.00,VWS V15.00,2016-07-29 07:41:00,
2016-07-29 02:46:00,71.4,69.6,29.89,West,264,0.0,0.0,94,0.00,,---,0.00,VWS V15.00,2016-07-29 07:46:00,
2016-07-29 02:51:00,71.4,69.9,29.89,West,264,0.0,0.0,95,0.00,,---,0.00,VWS V15.00,2016-07-29 07:51:00,
2016-07-29 02:56:00,71.6,70.1,29.92,West,264,0.0,0.0,95,0.00,,---,0.00,VWS V15.00,2016-07-29 07:56:00,
2016-07-29 03:01:00,71.6,70.1,29.92,West,264,0.0,0.0,95,0.00,,---,0.00,VWS V15.00,2016-07-29 08:01:00,
2016-07-29 03:06:00,71.6,70.4,29.92,West,264,0.0,0.0,96,0.00,,---,0.00,VWS V15.00,2016-07-29 08:06:00,
2016-07-29 03:11:00,71.6,70.4,29.89,West,264,0.0,0.0,96,0.00,,---,0.00,VWS V15.00,2016-07-29 08:11:00,
2016-07-29 03:16:00,71.4,70.2,29.89,WSW,256,0.0,0.0,96,0.00,,---,0.00,VWS V15.00,2016-07-29 08:16:00,
2016-07-29 03:21:00,71.4,70.5,29.89,WSW,256,0.0,0.0,97,0.00,,---,0.00,VWS V15.00,2016-07-29 08:21:00,
2016-07-29 03:26:00,71.4,70.5,29.89,WSW,256,0.0,0.0,97,0.00,,---,0.00,VWS V15.00,2016-07-29 08:26:00,
2016-07-29 03:31:00,71.2,70.3,29.89,WSW,249,0.0,2.7,97,0.00,,---,0.00,VWS V15.00,2016-07-29 08:31:00,
2016-07-29 03:36:00,71.1,70.2,29.89,WSW,245,0.0,0.0,97,0.00,,---,0.00,VWS V15.00,2016-07-29 08:36:00,
2016-07-29 03:41:00,71.1,70.5,29.89,WSW,245,0.0,0.0,98,0.00,,---,0.00,VWS V15.00,2016-07-29 08:41:00,
2016-07-29 03:46:00,70.9,70.6,29.89,WSW,245,0.0,0.0,99,0.00,,---,0.00,VWS V15.00,2016-07-29 08:46:00,
2016-07-29 03:51:00,70.9,70.6,29.89,WSW,245,0.0,0.0,99,0.00,,---,0.00,VWS V15.00,2016-07-29 08:51:00,
2016-07-29 03:56:00,70.7,70.4,29.89,WSW,245,0.0,0.0,99,0.00,,---,0.00,VWS V15.00,2016-07-29 08:56:00,
2016-07-29 04:01:00,70.7,70.4,29.89,WSW,245,0.0,0.0,99,0.00,,---,0.00,VWS V15.00,2016-07-29 09:01:00,
2016-07-29 04:06:00,70.5,70.2,29.89,WSW,245,0.0,0.0,99,0.00,,---,0.00,VWS V15.00,2016-07-29 09:06:00,
2016-07-29 04:11:00,70.5,70.2,29.89,WSW,245,0.0,0.0,99,0.00,,---,0.00,VWS V15.00,2016-07-29 09:11:00,
2016-07-29 04:16:00,70.3,70.1,29.89,WSW,245,0.0,0.0,99,0.00,,---,0.00,VWS V15.00,2016-07-29 09:16:00,
2016-07-29 04:21:00,70.2,69.9,29.89,WSW,245,0.0,0.0,99,0.00,,---,0.00,VWS V15.00,2016-07-29 09:21:00,
2016-07-29 04:26:00,70.0,69.7,29.92,WSW,245,0.0,0.0,99,0.00,,---,0.00,VWS V15.00,2016-07-29 09:26:00,
2016-07-29 04:31:00,69.8,69.5,29.92,WSW,245,0.0,0.0,99,0.00,,---,0.00,VWS V15.00,2016-07-29 09:31:00,
2016-07-29 04:36:00,69.8,69.8,29.92,WSW,245,0.0,0.0,100,0.00,,---,0.00,VWS V15.00,2016-07-29 09:36:00,
2016-07-29 04:41:00,70.0,70.0,29.92,WSW,245,0.0,0.0,100,0.00,,---,0.00,VWS V15.00,2016-07-29 09:41:00,
2016-07-29 04:46:00,69.8,69.8,29.92,WSW,245,0.0,0.0,100,0.00,,---,0.00,VWS V15.00,2016-07-29 09:46:00,
2016-07-29 04:51:00,69.8,69.8,29.92,WSW,245,0.0,0.0,100,0.00,,---,0.00,VWS V15.00,2016-07-29 09:51:00,
2016-07-29 04:56:00,69.8,69.8,29.92,WSW,245,0.0,0.0,100,0.00,,---,0.00,VWS V15.00,2016-07-29 09:56:00,
2016-07-29 05:01:00,69.6,69.6,29.92,WSW,245,0.0,0.0,100,0.00,,---,0.00,VWS V15.00,2016-07-29 10:01:00,
2016-07-29 05:06:00,69.6,69.6,29.92,WSW,245,0.0,0.0,100,0.00,,---,0.00,VWS V15.00,2016-07-29 10:06:00,
2016-07-29 05:11:00,69.6,69.6,29.92,WSW,245,0.0,0.0,100,0.00,,---,0.00,VWS V15.00,2016-07-29 10:11:00,
2016-07-29 05:16:00,69.4,69.4,29.92,WSW,245,0.0,0.0,100,0.00,,---,0.00,VWS V15.00,2016-07-29 10:16:00,
2016-07-29 05:26:00,70.0,70.0,29.92,WSW,245,0.0,0.0,100,0.00,,---,0.00,VWS V15.00,2016-07-29 10:26:00,
2016-07-29 05:31:00,70.0,70.0,29.92,WSW,245,0.0,0.0,100,0.00,,---,0.00,VWS V15.00,2016-07-29 10:31:00,
2016-07-29 05:36:00,70.2,70.2,29.92,WSW,245,0.0,0.0,100,0.00,,---,0.00,VWS V15.00,2016-07-29 10:36:00,
2016-07-29 05:42:00,70.0,70.0,29.92,WSW,245,0.0,0.0,100,0.00,,---,0.00,VWS V15.00,2016-07-29 10:42:00,
2016-07-29 05:47:00,70.2,70.2,29.92,WSW,245,0.0,0.0,100,0.00,,---,0.00,VWS V15.00,2016-07-29 10:47:00,
2016-07-29 05:52:00,70.2,70.2,29.92,WSW,245,0.0,0.0,100,0.00,,---,0.00,VWS V15.00,2016-07-29 10:52:00,
2016-07-29 05:57:00,70.3,70.3,29.92,WSW,245,0.0,0.0,100,0.00,,---,0.00,VWS V15.00,2016-07-29 10:57:00,
2016-07-29 06:02:00,70.3,70.3,29.92,WSW,245,0.0,0.0,100,0.00,,---,0.00,VWS V15.00,2016-07-29 11:02:00,
2016-07-29 06:07:00,70.5,70.5,29.92,WSW,245,0.0,0.0,100,0.00,,---,0.00,VWS V15.00,2016-07-29 11:07:00,
2016-07-29 06:12:00,70.7,70.7,29.92,WSW,245,0.0,0.0,100,0.00,,---,0.00,VWS V15.00,2016-07-29 11:12:00,
2016-07-29 06:17:00,70.9,70.9,29.92,WSW,245,0.0,0.0,100,0.00,,---,0.00,VWS V15.00,2016-07-29 11:17:00,
2016-07-29 06:22:00,70.9,70.9,29.92,WSW,245,0.0,0.0,100,0.00,,---,0.00,VWS V15.00,2016-07-29 11:22:00,
2016-07-29 06:27:00,71.1,71.1,29.92,WSW,245,0.0,0.0,100,0.00,,---,0.00,VWS V15.00,2016-07-29 11:27:00,
2016-07-29 06:32:00,71.2,71.2,29.92,WSW,253,0.0,0.0,100,0.00,,---,0.00,VWS V15.00,2016-07-29 11:32:00,
2016-07-29 06:37:00,71.4,71.4,29.92,WSW,256,0.0,0.0,100,0.00,,---,0.00,VWS V15.00,2016-07-29 11:37:00,
2016-07-29 06:42:00,71.4,71.4,29.95,WSW,247,0.0,0.0,100,0.00,,---,0.00,VWS V15.00,2016-07-29 11:42:00,
2016-07-29 06:47:00,71.6,71.6,29.95,West,263,0.0,2.7,100,0.00,,---,0.00,VWS V15.00,2016-07-29 11:47:00,
2016-07-29 06:52:00,71.6,71.6,29.95,West,265,4.0,4.0,100,0.00,,---,0.00,VWS V15.00,2016-07-29 11:52:00,
2016-07-29 06:57:00,71.8,71.8,29.95,West,265,0.0,0.0,100,0.00,,---,0.00,VWS V15.00,2016-07-29 11:57:00,
2016-07-29 07:02:00,71.8,71.8,29.95,West,264,0.0,0.0,100,0.00,,---,0.00,VWS V15.00,2016-07-29 12:02:00,
2016-07-29 07:07:00,72.0,72.0,29.95,West,264,0.0,0.0,100,0.00,,---,0.00,VWS V15.00,2016-07-29 12:07:00,
2016-07-29 07:12:00,72.0,72.0,29.95,West,264,0.0,0.0,100,0.00,,---,0.00,VWS V15.00,2016-07-29 12:12:00,
2016-07-29 07:17:00,72.1,72.2,29.95,West,264,0.0,0.0,100,0.00,,---,0.00,VWS V15.00,2016-07-29 12:17:00,
2016-07-29 07:22:00,72.3,72.3,29.95,West,264,0.0,0.0,100,0.00,,---,0.00,VWS V15.00,2016-07-29 12:22:00,
2016-07-29 07:27:00,72.3,72.3,29.95,West,264,0.0,0.0,100,0.00,,---,0.00,VWS V15.00,2016-07-29 12:27:00,
2016-07-29 07:32:00,72.3,72.3,29.95,West,264,0.0,0.0,100,0.00,,---,0.00,VWS V15.00,2016-07-29 12:32:00,
2016-07-29 07:37:00,72.5,72.5,29.95,West,264,0.0,0.0,100,0.00,,---,0.00,VWS V15.00,2016-07-29 12:37:00,
2016-07-29 07:42:00,72.7,72.7,29.95,West,264,0.0,0.0,100,0.00,,---,0.00,VWS V15.00,2016-07-29 12:42:00,
2016-07-29 07:47:00,72.9,72.9,29.95,West,264,0.0,0.0,100,0.00,,---,0.00,VWS V15.00,2016-07-29 12:47:00,
2016-07-29 07:52:00,73.2,73.2,29.95,West,264,0.0,0.0,100,0.00,,---,0.00,VWS V15.00,2016-07-29 12:52:00,
2016-07-29 07:57:00,73.4,73.4,29.95,West,264,0.0,0.0,100,0.00,,---,0.00,VWS V15.00,2016-07-29 12:57:00,
2016-07-29 08:02:00,73.6,73.6,29.95,West,263,0.0,0.0,100,0.00,,---,0.00,VWS V15.00,2016-07-29 13:02:00,
2016-07-29 08:07:00,73.8,73.8,29.95,West,263,0.0,0.0,100,0.00,,---,0.00,VWS V15.00,2016-07-29 13:07:00,
2016-07-29 08:12:00,74.1,74.1,29.92,West,263,0.0,0.0,100,0.00,,---,0.00,VWS V15.00,2016-07-29 13:12:00,
2016-07-29 08:17:00,74.5,74.5,29.92,West,263,0.0,0.0,100,0.00,,---,0.00,VWS V15.00,2016-07-29 13:17:00,
2016-07-29 08:22:00,75.4,75.4,29.92,West,263,0.0,0.0,100,0.00,,---,0.00,VWS V15.00,2016-07-29 13:22:00,
2016-07-29 08:27:00,76.5,76.5,29.92,West,263,0.0,0.0,100,0.00,,---,0.00,VWS V15.00,2016-07-29 13:27:00,
2016-07-29 08:32:00,77.0,77.0,29.92,West,263,0.0,0.0,100,0.00,,---,0.00,VWS V15.00,2016-07-29 13:32:00,
2016-07-29 08:37:00,79.3,79.3,29.92,West,263,0.0,0.0,100,0.00,,---,0.00,VWS V15.00,2016-07-29 13:37:00,
2016-07-29 08:42:00,80.6,80.6,29.95,West,263,0.0,0.0,100,0.00,,---,0.00,VWS V15.00,2016-07-29 13:42:00,
2016-07-29 08:47:00,78.8,72.5,29.95,West,263,0.0,0.0,81,0.00,,---,0.00,VWS V15.00,2016-07-29 13:47:00,
2016-07-29 08:52:00,78.8,71.7,29.95,West,263,0.0,0.0,79,0.00,,---,0.00,VWS V15.00,2016-07-29 13:52:00,
2016-07-29 08:57:00,80.8,75.1,29.95,West,263,0.0,0.0,83,0.00,,---,0.00,VWS V15.00,2016-07-29 13:57:00,
2016-07-29 09:02:00,81.5,74.0,29.95,West,263,0.0,0.0,78,0.00,,---,0.00,VWS V15.00,2016-07-29 14:02:00,
2016-07-29 09:07:00,82.2,73.9,29.95,West,265,0.0,0.0,76,0.00,,---,0.00,VWS V15.00,2016-07-29 14:07:00,
2016-07-29 09:12:00,82.4,74.1,29.95,SW,227,0.0,0.0,76,0.00,,---,0.00,VWS V15.00,2016-07-29 14:12:00,
2016-07-29 09:17:00,82.2,73.9,29.95,SW,227,0.0,0.0,76,0.00,,---,0.00,VWS V15.00,2016-07-29 14:17:00,
2016-07-29 09:22:00,81.9,73.2,29.95,WSW,254,0.0,0.0,75,0.00,,---,0.00,VWS V15.00,2016-07-29 14:22:00,
2016-07-29 09:27:00,81.7,71.4,29.95,WSW,254,0.0,0.0,71,0.00,,---,0.00,VWS V15.00,2016-07-29 14:27:00,
2016-07-29 09:32:00,83.3,72.9,29.95,WSW,254,0.0,0.0,71,0.00,,---,0.00,VWS V15.00,2016-07-29 14:32:00,
2016-07-29 09:37:00,86.2,74.4,29.95,WSW,254,0.0,0.0,68,0.00,,---,0.00,VWS V15.00,2016-07-29 14:37:00,
2016-07-29 09:42:00,87.6,74.4,29.92,South,189,3.1,3.1,65,0.00,,---,0.00,VWS V15.00,2016-07-29 14:42:00,
2016-07-29 09:47:00,88.3,74.2,29.92,WNW,301,0.0,0.0,63,0.00,,---,0.00,VWS V15.00,2016-07-29 14:47:00,
2016-07-29 09:52:00,89.4,73.7,29.92,SW,233,2.7,4.0,60,0.00,,---,0.00,VWS V15.00,2016-07-29 14:52:00,
2016-07-29 09:57:00,89.1,73.4,29.95,SSW,200,0.0,0.0,60,0.00,,---,0.00,VWS V15.00,2016-07-29 14:57:00,
2016-07-29 10:02:00,87.8,72.2,29.95,SSW,196,4.0,4.0,60,0.00,,---,0.00,VWS V15.00,2016-07-29 15:02:00,
2016-07-29 10:07:00,85.8,70.8,29.95,East,99,0.0,0.0,61,0.00,,---,0.00,VWS V15.00,2016-07-29 15:07:00,
2016-07-29 10:12:00,84.7,69.8,29.95,WSW,237,0.0,0.0,61,0.00,,---,0.00,VWS V15.00,2016-07-29 15:12:00,